Time;durP1;ratioP1;P1;durP2;ratioP2;P2;SDS_P1;SDS_P2;PMS_P1;PMS_P2;Temp;Humidity;BMP_temperature;BMP_pressure;BME280_temperature;BME280_humidity;BME280_pressure;Samples;Min_cycle;Max_cycle;Signal;HPM_P1;HPM_P2
2021/08/12 00:02:05;;;;;;;13.18;5.90;;;17.50;96.60;;;;;;5031978;28;20418;-74
2021/08/12 00:04:31;;;;;;;11.77;5.70;;;17.50;96.80;;;;;;5032190;28;20471;-73
2021/08/12 00:06:57;;;;;;;10.20;5.40;;;17.50;96.80;;;;;;5031928;28;20112;-73
2021/08/12 00:09:23;;;;;;;13.63;5.95;;;17.50;96.80;;;;;;5031634;28;20021;-74
2021/08/12 00:11:49;;;;;;;12.73;5.90;;;17.40;97.00;;;;;;5032164;28;20016;-73
2021/08/12 00:14:15;;;;;;;9.05;6.07;;;17.40;97.00;;;;;;5031855;28;20056;-73
2021/08/12 00:16:40;;;;;;;10.18;5.90;;;17.40;97.00;;;;;;5031903;28;20494;-72
2021/08/12 00:19:11;;;;;;;10.15;6.30;;;17.40;96.90;;;;;;5031863;28;20045;-73
2021/08/12 00:21:41;;;;;;;9.07;5.28;;;17.40;96.70;;;;;;5031764;28;20058;-72
2021/08/12 00:24:07;;;;;;;11.73;5.53;;;17.40;96.80;;;;;;5031550;28;20062;-74
2021/08/12 00:26:33;;;;;;;9.70;6.03;;;17.40;96.90;;;;;;5031136;28;20037;-74
2021/08/12 00:28:58;;;;;;;8.13;5.38;;;17.40;97.10;;;;;;5031436;28;20037;-74
2021/08/12 00:31:24;;;;;;;10.23;6.20;;;17.40;97.00;;;;;;5031498;28;20034;-72
2021/08/12 00:33:50;;;;;;;9.50;5.95;;;17.40;97.00;;;;;;5031369;28;20029;-73
2021/08/12 00:36:15;;;;;;;12.70;6.05;;;17.40;96.90;;;;;;5031354;28;20025;-72
2021/08/12 00:38:41;;;;;;;11.68;5.78;;;17.40;96.80;;;;;;5031653;28;20108;-73
2021/08/12 00:41:06;;;;;;;8.98;5.63;;;17.50;96.90;;;;;;5031226;28;20045;-72
2021/08/12 00:43:32;;;;;;;9.10;6.05;;;17.40;97.10;;;;;;5031225;28;20084;-73
2021/08/12 00:45:57;;;;;;;9.38;6.35;;;17.40;97.00;;;;;;5030201;28;20495;-73
2021/08/12 00:48:23;;;;;;;11.07;6.32;;;17.40;96.90;;;;;;5031094;28;20041;-73
2021/08/12 00:50:49;;;;;;;11.65;6.32;;;17.40;96.80;;;;;;5031605;28;20033;-72
2021/08/12 00:53:17;;;;;;;8.90;5.75;;;17.40;96.90;;;;;;5031151;28;20045;-72
2021/08/12 00:55:45;;;;;;;10.75;6.25;;;17.40;96.90;;;;;;5031099;28;20153;-73
2021/08/12 00:58:15;;;;;;;10.45;6.28;;;17.30;97.00;;;;;;5029870;28;20478;-73
2021/08/12 01:00:42;;;;;;;11.68;6.50;;;17.40;97.00;;;;;;5031204;28;20048;-74
2021/08/12 01:03:16;;;;;;;14.65;6.88;;;17.30;97.10;;;;;;5031232;28;20084;-73
2021/08/12 01:05:52;;;;;;;11.63;6.13;;;17.30;97.00;;;;;;5031048;28;20474;-73
2021/08/12 01:08:37;;;;;;;16.92;6.93;;;17.30;97.00;;;;;;5030679;28;20021;-72
2021/08/12 01:11:14;;;;;;;14.55;6.38;;;17.30;97.10;;;;;;5030856;28;20337;-71
2021/08/12 01:13:56;;;;;;;14.35;6.32;;;17.30;97.10;;;;;;5030812;28;20021;-72
2021/08/12 01:16:27;;;;;;;14.25;5.93;;;17.30;97.40;;;;;;5030964;28;20025;-73
2021/08/12 01:19:05;;;;;;;10.02;6.10;;;17.20;97.00;;;;;;5030660;28;20091;-71
2021/08/12 01:22:00;;;;;;;10.57;6.57;;;17.30;97.30;;;;;;5030747;28;20029;-73
2021/08/12 01:24:30;;;;;;;10.70;6.60;;;17.30;97.40;;;;;;5030772;28;20062;-73
2021/08/12 01:27:00;;;;;;;9.05;5.47;;;17.40;97.20;;;;;;5031254;28;20639;-71
2021/08/12 01:29:52;;;;;;;10.88;6.03;;;17.30;97.20;;;;;;5030785;28;20034;-72
2021/08/12 01:32:26;;;;;;;7.85;5.10;;;17.30;97.60;;;;;;5029808;28;20765;-73
2021/08/12 01:34:59;;;;;;;11.07;5.90;;;17.30;97.40;;;;;;5031333;28;20511;-73
2021/08/12 01:37:32;;;;;;;11.90;6.03;;;17.30;97.50;;;;;;5053851;28;20037;-73
2021/08/12 01:40:01;;;;;;;10.25;5.43;;;17.30;97.60;;;;;;5054591;28;20033;-72
2021/08/12 01:42:28;;;;;;;8.23;5.70;;;17.30;97.70;;;;;;5054304;28;20112;-73
2021/08/12 01:44:56;;;;;;;9.57;5.68;;;17.20;97.90;;;;;;5054876;28;20021;-73
2021/08/12 01:47:24;;;;;;;11.45;6.40;;;17.20;97.60;;;;;;5054546;28;20025;-72
2021/08/12 01:49:52;;;;;;;15.85;5.60;;;17.20;97.60;;;;;;5054420;28;20029;-73
2021/08/12 01:52:19;;;;;;;13.80;5.68;;;17.20;97.60;;;;;;5054345;28;20467;-72
2021/08/12 01:54:46;;;;;;;7.97;5.35;;;17.10;97.70;;;;;;5054266;28;20614;-72
2021/08/12 01:57:12;;;;;;;10.52;5.57;;;17.10;97.80;;;;;;5054471;28;20025;-73
2021/08/12 01:59:38;;;;;;;10.07;5.78;;;17.10;97.80;;;;;;5054384;28;20035;-73
2021/08/12 02:02:06;;;;;;;9.45;6.00;;;17.10;97.60;;;;;;5054195;28;20044;-74
2021/08/12 02:04:33;;;;;;;10.32;6.35;;;17.00;97.70;;;;;;5054165;28;20025;-73
2021/08/12 02:07:02;;;;;;;14.70;6.07;;;17.10;97.60;;;;;;5053296;28;20399;-73
2021/08/12 02:09:27;;;;;;;10.93;6.18;;;17.10;97.50;;;;;;5054143;28;20319;-72
2021/08/12 02:11:53;;;;;;;14.02;6.53;;;17.10;97.60;;;;;;5054501;28;20025;-74
2021/08/12 02:14:18;;;;;;;11.00;5.68;;;17.00;97.60;;;;;;5053966;28;20394;-72
2021/08/12 02:16:44;;;;;;;10.00;5.88;;;17.00;97.60;;;;;;5054028;28;20025;-73
2021/08/12 02:19:09;;;;;;;11.70;6.30;;;17.00;97.60;;;;;;5053676;28;20033;-73
2021/08/12 02:21:44;;;;;;;9.18;6.20;;;17.00;97.50;;;;;;5053759;28;20088;-73
2021/08/12 02:24:15;;;;;;;10.02;5.90;;;17.00;97.50;;;;;;5053893;28;20471;-74
2021/08/12 02:26:50;;;;;;;9.52;6.20;;;17.00;97.50;;;;;;5053718;28;20080;-72
2021/08/12 02:29:16;;;;;;;8.18;5.97;;;17.00;97.50;;;;;;5053709;28;20405;-73
2021/08/12 02:31:44;;;;;;;9.93;5.82;;;16.90;97.60;;;;;;5053772;28;20029;-72
2021/08/12 02:34:12;;;;;;;8.93;5.85;;;16.90;97.50;;;;;;5052354;28;20033;-72
2021/08/12 02:36:40;;;;;;;11.77;6.57;;;16.90;97.50;;;;;;5053487;28;20025;-71
2021/08/12 02:39:06;;;;;;;10.18;6.22;;;16.90;97.80;;;;;;5053958;28;20124;-73
2021/08/12 02:41:33;;;;;;;8.43;5.68;;;16.90;97.50;;;;;;5052442;28;20087;-73
2021/08/12 02:43:59;;;;;;;13.07;6.13;;;16.90;97.70;;;;;;5053498;28;20040;-73
2021/08/12 02:46:26;;;;;;;15.95;6.00;;;16.90;97.60;;;;;;5053339;28;20033;-72
2021/08/12 02:48:54;;;;;;;10.20;6.60;;;16.90;97.70;;;;;;5053013;28;20040;-72
2021/08/12 02:51:21;;;;;;;10.70;6.32;;;16.90;97.70;;;;;;5053244;28;20021;-71
2021/08/12 02:53:47;;;;;;;10.07;6.03;;;16.80;97.50;;;;;;5053735;28;20474;-72
2021/08/12 02:56:15;;;;;;;13.88;5.60;;;16.80;97.70;;;;;;5053000;28;20034;-73
2021/08/12 02:58:41;;;;;;;13.25;5.60;;;16.80;97.80;;;;;;5053041;28;20043;-72
2021/08/12 03:01:08;;;;;;;16.45;6.57;;;16.80;97.70;;;;;;5052926;28;20033;-73
2021/08/12 03:03:36;;;;;;;10.98;6.72;;;16.80;97.70;;;;;;5052232;28;20045;-72
2021/08/12 03:06:02;;;;;;;12.63;6.85;;;16.70;97.80;;;;;;5053411;28;20032;-72
2021/08/12 03:08:31;;;;;;;11.13;7.35;;;16.70;98.10;;;;;;5053012;28;20025;-71
2021/08/12 03:10:58;;;;;;;10.40;6.20;;;16.70;97.80;;;;;;5052840;28;20037;-72
2021/08/12 03:13:27;;;;;;;11.32;6.50;;;16.70;97.80;;;;;;5051907;28;20123;-73
2021/08/12 03:15:53;;;;;;;11.48;6.55;;;16.60;97.80;;;;;;5052742;28;20040;-72
2021/08/12 03:18:18;;;;;;;7.72;5.97;;;16.60;97.90;;;;;;5052727;28;20370;-73
2021/08/12 03:20:44;;;;;;;12.73;7.35;;;16.60;98.00;;;;;;5053178;28;20018;-73
2021/08/12 03:23:10;;;;;;;11.52;6.70;;;16.60;98.00;;;;;;5052749;28;20057;-73
2021/08/12 03:25:36;;;;;;;11.30;6.25;;;16.60;97.90;;;;;;5052669;28;20443;-73
2021/08/12 03:28:01;;;;;;;12.80;6.70;;;16.60;98.00;;;;;;5052555;28;20048;-73
2021/08/12 03:30:27;;;;;;;15.80;7.10;;;16.50;98.00;;;;;;5052416;28;20031;-72
2021/08/12 03:32:53;;;;;;;11.52;6.70;;;16.50;98.10;;;;;;5052929;28;20059;-71
2021/08/12 03:35:18;;;;;;;10.68;6.95;;;16.60;98.00;;;;;;5052340;28;20398;-72
2021/08/12 03:37:44;;;;;;;7.30;6.00;;;16.50;97.90;;;;;;5052522;28;20029;-72
2021/08/12 03:40:11;;;;;;;14.90;7.55;;;16.50;97.90;;;;;;5051282;28;20039;-73
2021/08/12 03:42:36;;;;;;;10.73;7.00;;;16.50;98.10;;;;;;5051172;28;20584;-74
2021/08/12 03:45:03;;;;;;;12.65;7.30;;;16.50;97.90;;;;;;5052783;28;20021;-73
2021/08/12 03:47:30;;;;;;;13.68;6.82;;;16.60;98.00;;;;;;5052450;28;20033;-73
2021/08/12 03:49:55;;;;;;;11.13;6.47;;;16.50;98.00;;;;;;5052182;28;20120;-72
2021/08/12 03:52:21;;;;;;;8.38;6.70;;;16.40;98.20;;;;;;5052183;28;20112;-72
2021/08/12 03:54:47;;;;;;;15.95;7.82;;;16.40;98.10;;;;;;5052389;28;20040;-72
2021/08/12 03:57:12;;;;;;;10.10;6.80;;;16.50;97.80;;;;;;5052250;28;20401;-72
2021/08/12 03:59:38;;;;;;;13.35;7.00;;;16.50;97.90;;;;;;5050834;28;20041;-73
2021/08/12 04:02:04;;;;;;;15.43;7.60;;;16.40;98.10;;;;;;5050836;28;20033;-73
2021/08/12 04:04:30;;;;;;;11.52;6.72;;;16.40;98.20;;;;;;5051771;28;20033;-72
2021/08/12 04:06:56;;;;;;;9.60;6.45;;;16.40;98.30;;;;;;5051830;28;20249;-72
2021/08/12 04:09:21;;;;;;;9.02;6.68;;;16.40;98.40;;;;;;5051452;28;20431;-72
2021/08/12 04:11:47;;;;;;;11.40;6.47;;;16.40;98.20;;;;;;5052160;28;20013;-73
2021/08/12 04:14:13;;;;;;;12.25;6.57;;;16.40;98.00;;;;;;5051556;28;20324;-74
2021/08/12 04:16:38;;;;;;;12.27;6.60;;;16.30;98.30;;;;;;5051595;28;20075;-73
2021/08/12 04:19:05;;;;;;;10.80;6.93;;;16.30;98.40;;;;;;5050445;28;20064;-72
2021/08/12 04:21:31;;;;;;;12.05;6.68;;;16.30;98.30;;;;;;5051823;28;20360;-73
2021/08/12 04:23:56;;;;;;;12.73;6.97;;;16.30;98.40;;;;;;5051804;28;20471;-73
2021/08/12 04:26:27;;;;;;;11.68;6.90;;;16.20;98.50;;;;;;5051477;28;20168;-72
2021/08/12 04:28:56;;;;;;;14.27;6.28;;;16.20;98.50;;;;;;5051529;28;20068;-72
2021/08/12 04:31:23;;;;;;;12.57;6.57;;;16.20;98.50;;;;;;5051281;28;20152;-72
2021/08/12 04:33:49;;;;;;;11.13;6.75;;;16.20;98.50;;;;;;5050157;28;20041;-73
2021/08/12 04:36:15;;;;;;;12.48;7.20;;;16.20;98.30;;;;;;5052154;28;20033;-72
2021/08/12 04:38:40;;;;;;;11.23;6.53;;;16.30;98.20;;;;;;5051335;28;20044;-73
2021/08/12 04:41:06;;;;;;;11.82;7.43;;;16.30;98.20;;;;;;5051095;28;20024;-73
2021/08/12 04:43:32;;;;;;;11.20;6.80;;;16.40;98.10;;;;;;5051156;28;20021;-73
2021/08/12 04:45:58;;;;;;;10.57;6.60;;;16.40;98.30;;;;;;5051052;28;20051;-73
2021/08/12 04:48:24;;;;;;;12.02;6.88;;;16.30;98.40;;;;;;5051104;28;20033;-72
2021/08/12 04:50:49;;;;;;;12.00;6.72;;;16.30;98.20;;;;;;5051409;28;20090;-73
2021/08/12 04:53:15;;;;;;;11.98;7.85;;;16.30;98.30;;;;;;5050946;28;20360;-73
2021/08/12 04:55:40;;;;;;;13.60;7.32;;;16.30;98.30;;;;;;5051045;28;20471;-73
2021/08/12 04:58:06;;;;;;;10.85;7.30;;;16.40;98.10;;;;;;5050912;28;20097;-73
2021/08/12 05:00:33;;;;;;;14.38;9.85;;;16.40;98.30;;;;;;5050743;28;20036;-73
2021/08/12 05:02:59;;;;;;;13.30;7.63;;;16.40;98.40;;;;;;5051332;28;20028;-74
2021/08/12 05:05:24;;;;;;;12.80;7.60;;;16.40;98.20;;;;;;5050806;28;20039;-73
2021/08/12 05:07:50;;;;;;;11.55;8.02;;;16.40;98.20;;;;;;5050709;28;20025;-73
2021/08/12 05:10:16;;;;;;;11.10;7.07;;;16.40;98.10;;;;;;5050694;28;20115;-72
2021/08/12 05:12:41;;;;;;;12.98;7.72;;;16.50;98.20;;;;;;5050554;28;20021;-75
2021/08/12 05:15:07;;;;;;;13.00;6.70;;;16.50;98.20;;;;;;5051168;28;20040;-74
2021/08/12 05:17:33;;;;;;;14.05;7.57;;;16.50;98.10;;;;;;5050853;28;20490;-73
2021/08/12 05:19:58;;;;;;;9.88;6.53;;;16.50;98.00;;;;;;5050593;28;20029;-74
2021/08/12 05:22:24;;;;;;;9.15;6.57;;;16.60;98.20;;;;;;5050129;28;20048;-72
2021/08/12 05:24:50;;;;;;;8.85;6.70;;;16.60;98.30;;;;;;5050575;28;20036;-74
2021/08/12 05:27:16;;;;;;;10.88;7.15;;;16.70;98.20;;;;;;5050366;28;20052;-72
2021/08/12 05:29:42;;;;;;;9.77;6.35;;;16.70;98.10;;;;;;5050804;28;20534;-71
2021/08/12 05:32:08;;;;;;;10.80;7.63;;;16.80;98.10;;;;;;5050673;28;20029;-73
2021/08/12 05:34:34;;;;;;;9.93;6.05;;;16.80;98.00;;;;;;5050697;28;20041;-72
2021/08/12 05:37:00;;;;;;;9.80;6.43;;;16.90;97.90;;;;;;5050285;28;20474;-73
2021/08/12 05:39:26;;;;;;;11.05;7.13;;;17.00;98.10;;;;;;5050429;28;20409;-73
2021/08/12 05:41:52;;;;;;;10.82;6.90;;;17.10;98.10;;;;;;5049595;28;20642;-73
2021/08/12 05:44:18;;;;;;;14.23;6.45;;;17.10;98.00;;;;;;5050523;28;20099;-71
2021/08/12 05:46:44;;;;;;;17.27;7.47;;;17.20;97.80;;;;;;5050225;28;20470;-71
2021/08/12 05:49:10;;;;;;;9.85;6.85;;;17.20;97.80;;;;;;5050429;28;20033;-70
2021/08/12 05:51:37;;;;;;;9.77;6.70;;;17.30;97.90;;;;;;5050078;28;20036;-73
2021/08/12 05:54:03;;;;;;;12.75;6.88;;;17.30;98.00;;;;;;5050507;28;20488;-71
2021/08/12 05:56:29;;;;;;;14.98;7.57;;;17.30;97.90;;;;;;5050364;28;20033;-71
2021/08/12 05:58:56;;;;;;;9.05;6.85;;;17.40;97.80;;;;;;5050113;28;20584;-73
2021/08/12 06:01:21;;;;;;;11.85;6.70;;;17.40;97.80;;;;;;5049259;28;20132;-72
2021/08/12 06:03:47;;;;;;;9.77;6.32;;;17.40;97.70;;;;;;5050314;28;20110;-72
2021/08/12 06:06:14;;;;;;;11.23;6.40;;;17.50;97.90;;;;;;5050744;28;20094;-77
2021/08/12 06:08:40;;;;;;;10.73;6.78;;;17.60;97.60;;;;;;5050559;28;20037;-72
2021/08/12 06:11:06;;;;;;;11.45;6.57;;;17.60;97.60;;;;;;5050136;28;20039;-73
2021/08/12 06:13:32;;;;;;;9.88;6.22;;;17.70;97.70;;;;;;5049912;28;20120;-73
2021/08/12 06:15:59;;;;;;;14.20;6.70;;;17.70;97.70;;;;;;5049999;28;20033;-72
2021/08/12 06:18:25;;;;;;;13.95;7.07;;;17.80;97.60;;;;;;5050080;28;20117;-72
2021/08/12 06:20:51;;;;;;;11.80;7.03;;;17.80;97.50;;;;;;5050539;28;20100;-75
2021/08/12 06:23:17;;;;;;;9.93;6.63;;;17.80;97.60;;;;;;5050886;28;20374;-73
2021/08/12 06:25:43;;;;;;;11.20;6.78;;;17.90;97.40;;;;;;5053658;28;20106;-72
2021/08/12 06:28:09;;;;;;;10.02;6.47;;;18.00;97.40;;;;;;5053451;28;20056;-73
2021/08/12 06:30:35;;;;;;;11.10;6.50;;;18.00;97.60;;;;;;5053350;28;20093;-72
2021/08/12 06:33:01;;;;;;;10.52;7.15;;;18.10;97.60;;;;;;5053924;28;20028;-75
2021/08/12 06:35:31;;;;;;;10.60;6.25;;;18.20;97.30;;;;;;5053618;28;20029;-73
2021/08/12 06:37:56;;;;;;;9.77;6.90;;;18.30;97.20;;;;;;5053587;28;20036;-73
2021/08/12 06:40:23;;;;;;;9.90;6.28;;;18.30;97.00;;;;;;5053462;28;20033;-77
2021/08/12 06:42:49;;;;;;;8.77;6.60;;;18.40;97.00;;;;;;5053327;28;20112;-77
2021/08/12 06:45:16;;;;;;;12.20;7.75;;;18.40;96.90;;;;;;5053266;28;20021;-75
2021/08/12 06:47:42;;;;;;;12.25;7.43;;;18.40;96.80;;;;;;5053657;28;20119;-74
2021/08/12 06:50:08;;;;;;;19.10;8.70;;;18.50;96.70;;;;;;5053131;28;20029;-75
2021/08/12 06:52:35;;;;;;;9.90;7.63;;;18.60;96.60;;;;;;5052086;28;20563;-74
2021/08/12 06:55:01;;;;;;;15.50;8.07;;;18.60;96.60;;;;;;5053304;28;20033;-76
2021/08/12 06:57:27;;;;;;;11.35;6.65;;;18.80;96.50;;;;;;5052934;28;20021;-75
2021/08/12 06:59:53;;;;;;;10.57;5.80;;;18.80;96.30;;;;;;5052914;28;20017;-75
2021/08/12 07:02:18;;;;;;;9.30;5.68;;;18.90;96.20;;;;;;5053047;28;20050;-76
2021/08/12 07:04:44;;;;;;;12.32;6.13;;;19.00;95.90;;;;;;5053114;28;20475;-76
2021/08/12 07:07:10;;;;;;;9.35;6.00;;;19.10;95.80;;;;;;5052816;28;20492;-73
2021/08/12 07:09:35;;;;;;;9.85;5.85;;;19.20;95.50;;;;;;5052963;28;20045;-78
2021/08/12 07:12:01;;;;;;;8.70;5.57;;;19.30;95.30;;;;;;5053223;28;20027;-78
2021/08/12 07:14:27;;;;;;;7.88;5.53;;;19.40;95.60;;;;;;5052994;28;20132;-74
2021/08/12 07:16:52;;;;;;;8.98;5.13;;;19.50;95.00;;;;;;5052532;28;20029;-81
2021/08/12 07:19:18;;;;;;;8.38;6.00;;;19.70;95.00;;;;;;5051559;28;20351;-74
2021/08/12 07:21:43;;;;;;;9.27;6.10;;;19.90;95.70;;;;;;5052367;28;20065;-74
2021/08/12 07:24:09;;;;;;;19.85;10.25;;;20.00;94.80;;;;;;5052555;28;20544;-75
2021/08/12 07:26:36;;;;;;;16.42;8.82;;;20.20;94.60;;;;;;5052660;28;20090;-74
2021/08/12 07:29:02;;;;;;;9.73;6.32;;;20.40;94.30;;;;;;5052406;28;20099;-73
2021/08/12 07:31:28;;;;;;;9.18;5.07;;;20.50;94.50;;;;;;5052487;28;20026;-73
2021/08/12 07:33:56;;;;;;;12.38;5.43;;;20.60;94.20;;;;;;5051126;28;20626;-73
2021/08/12 07:36:22;;;;;;;9.50;5.53;;;20.70;94.00;;;;;;5052793;28;20032;-72
2021/08/12 07:38:47;;;;;;;6.03;4.88;;;20.80;94.00;;;;;;5052082;28;20037;-74
2021/08/12 07:41:13;;;;;;;13.95;8.05;;;20.90;93.80;;;;;;5052338;28;20632;-73
2021/08/12 07:43:40;;;;;;;10.68;7.00;;;21.00;93.80;;;;;;5052249;28;20033;-72
2021/08/12 07:46:05;;;;;;;8.65;5.32;;;21.10;93.40;;;;;;5051900;28;20705;-71
2021/08/12 07:48:36;;;;;;;8.57;5.30;;;21.20;93.20;;;;;;5052269;28;20033;-73
2021/08/12 07:51:02;;;;;;;7.50;5.18;;;21.20;93.10;;;;;;5052511;28;20025;-71
2021/08/12 07:53:28;;;;;;;6.53;5.10;;;21.40;93.10;;;;;;5052133;28;20048;-74
2021/08/12 07:55:56;;;;;;;8.50;5.45;;;21.50;92.60;;;;;;5051978;28;20036;-71
2021/08/12 07:58:22;;;;;;;6.35;4.60;;;21.60;92.70;;;;;;5051906;28;20425;-74
2021/08/12 08:00:47;;;;;;;6.82;4.78;;;21.80;93.10;;;;;;5052086;28;20039;-72
2021/08/12 08:03:13;;;;;;;5.43;4.32;;;22.00;92.20;;;;;;5052325;28;20561;-74
2021/08/12 08:05:38;;;;;;;9.57;4.80;;;22.10;92.60;;;;;;5051991;28;20032;-74
2021/08/12 08:08:04;;;;;;;11.73;5.00;;;22.20;91.90;;;;;;5051928;28;20029;-73
2021/08/12 08:10:30;;;;;;;15.77;7.25;;;22.30;91.80;;;;;;5051530;28;20489;-72
2021/08/12 08:12:56;;;;;;;7.22;4.40;;;22.40;92.00;;;;;;5050436;28;20033;-73
2021/08/12 08:15:22;;;;;;;9.25;4.47;;;22.40;91.40;;;;;;5051478;28;20538;-71
2021/08/12 08:17:48;;;;;;;6.18;4.97;;;22.50;91.60;;;;;;5051741;28;20522;-71
2021/08/12 08:20:15;;;;;;;7.40;4.43;;;22.80;91.40;;;;;;5051375;28;20116;-71
2021/08/12 08:22:41;;;;;;;4.90;4.18;;;23.20;91.50;;;;;;5050942;28;20140;-72
2021/08/12 08:25:08;;;;;;;10.60;4.93;;;23.80;91.20;;;;;;5051156;28;20399;-71
2021/08/12 08:27:35;;;;;;;5.32;4.15;;;24.50;90.40;;;;;;5050819;28;20040;-71
2021/08/12 08:30:00;;;;;;;6.78;4.55;;;25.40;88.00;;;;;;5051628;28;20021;-71
2021/08/12 08:32:26;;;;;;;6.20;4.60;;;25.70;85.00;;;;;;5051220;28;20040;-74
2021/08/12 08:34:55;;;;;;;8.18;4.32;;;25.90;85.30;;;;;;5051242;28;20083;-73
2021/08/12 08:37:20;;;;;;;7.60;4.10;;;26.00;84.40;;;;;;5050660;28;20029;-73
2021/08/12 08:39:46;;;;;;;8.35;4.47;;;25.90;83.60;;;;;;5051154;28;20044;-73
2021/08/12 08:42:12;;;;;;;7.82;4.38;;;25.80;83.80;;;;;;5051367;28;20032;-73
2021/08/12 08:44:40;;;;;;;7.50;4.53;;;25.90;83.80;;;;;;5050898;28;20486;-72
2021/08/12 08:47:08;;;;;;;6.53;3.88;;;25.70;83.70;;;;;;5050642;28;20094;-73
2021/08/12 08:49:37;;;;;;;5.70;4.43;;;25.40;84.40;;;;;;5051175;28;20412;-73
2021/08/12 08:52:04;;;;;;;7.10;4.78;;;25.40;84.60;;;;;;5050797;28;20033;-74
2021/08/12 08:54:31;;;;;;;8.88;6.32;;;25.60;84.70;;;;;;5051116;28;20009;-73
2021/08/12 08:56:58;;;;;;;9.70;6.03;;;25.90;84.00;;;;;;5050172;28;20112;-74
2021/08/12 08:59:25;;;;;;;5.63;4.07;;;26.50;83.30;;;;;;5049767;28;20041;-75
2021/08/12 09:01:50;;;;;;;7.38;4.10;;;27.40;81.90;;;;;;5050592;28;20056;-74
2021/08/12 09:04:16;;;;;;;6.72;3.70;;;28.20;80.20;;;;;;5050763;28;20051;-73
2021/08/12 09:06:41;;;;;;;6.18;4.35;;;28.90;77.60;;;;;;5050702;28;20417;-73
2021/08/12 09:09:09;;;;;;;6.28;3.72;;;29.50;78.00;;;;;;5051236;28;20481;-72
2021/08/12 09:11:35;;;;;;;11.40;4.30;;;30.60;73.90;;;;;;5049974;28;20112;-73
2021/08/12 09:14:34;;;;;;;5.43;4.00;;;31.50;70.70;;;;;;5050606;28;20108;-72
2021/08/12 09:17:20;;;;;;;6.53;3.83;;;31.80;67.00;;;;;;5050758;28;20029;-74
2021/08/12 09:20:01;;;;;;;6.03;3.87;;;31.40;66.30;;;;;;5050721;28;20044;-73
2021/08/12 09:22:51;;;;;;;7.93;4.10;;;31.30;68.00;;;;;;5050173;28;20120;-74
2021/08/12 09:25:26;;;;;;;5.40;3.92;;;31.20;66.20;;;;;;5047244;28;20029;-73
2021/08/12 09:28:14;;;;;;;6.18;3.53;;;31.70;66.20;;;;;;5050433;28;20141;-73
2021/08/12 09:30:40;;;;;;;6.75;3.80;;;32.10;64.30;;;;;;5050630;28;20029;-72
2021/08/12 09:33:06;;;;;;;7.75;3.67;;;32.20;62.00;;;;;;5049817;28;20405;-71
2021/08/12 09:35:32;;;;;;;3.95;3.47;;;33.10;61.80;;;;;;5050543;28;20227;-73
2021/08/12 09:38:09;;;;;;;5.80;3.80;;;33.50;61.00;;;;;;5049284;28;20174;-72
2021/08/12 09:40:35;;;;;;;7.97;3.95;;;33.60;61.20;;;;;;5050581;28;20029;-72
2021/08/12 09:43:05;;;;;;;5.75;3.88;;;33.90;59.80;;;;;;5050715;28;20029;-73
2021/08/12 09:45:32;;;;;;;7.13;3.80;;;34.50;58.20;;;;;;5049051;28;20021;-74
2021/08/12 09:48:19;;;;;;;7.35;3.70;;;34.70;56.90;;;;;;5050659;28;20174;-72
2021/08/12 09:50:58;;;;;;;5.25;4.20;;;34.60;56.30;;;;;;5049225;28;20510;-71
2021/08/12 09:53:24;;;;;;;5.07;3.35;;;34.40;55.10;;;;;;5050331;28;20140;-71
2021/08/12 09:55:50;;;;;;;6.80;4.22;;;34.10;55.70;;;;;;5050044;28;20120;-70
2021/08/12 09:58:18;;;;;;;4.23;3.57;;;33.30;55.50;;;;;;5051438;28;20044;-73
2021/08/12 10:00:45;;;;;;;5.63;3.85;;;33.30;56.00;;;;;;5054075;28;20520;-72
2021/08/12 10:03:32;;;;;;;5.70;3.65;;;33.10;55.50;;;;;;5054115;28;20461;-71
2021/08/12 10:06:01;;;;;;;6.33;3.80;;;32.90;57.40;;;;;;5053078;28;20052;-73
2021/08/12 10:08:28;;;;;;;5.72;3.50;;;33.40;57.60;;;;;;5053888;28;20025;-74
2021/08/12 10:10:54;;;;;;;5.05;3.58;;;33.60;56.40;;;;;;5053847;28;20032;-73
2021/08/12 10:13:20;;;;;;;8.82;3.67;;;33.60;55.40;;;;;;5054048;28;20037;-72
2021/08/12 10:15:49;;;;;;;8.20;3.53;;;33.90;55.60;;;;;;5053862;28;20025;-72
2021/08/12 10:18:18;;;;;;;6.88;4.03;;;34.10;55.40;;;;;;5054098;28;20100;-74
2021/08/12 10:20:45;;;;;;;6.82;3.88;;;34.70;54.70;;;;;;5053783;28;20094;-76
2021/08/12 10:23:11;;;;;;;5.57;3.63;;;34.70;53.80;;;;;;5053660;28;20467;-74
2021/08/12 10:25:37;;;;;;;4.43;3.53;;;34.50;54.40;;;;;;5052580;28;20394;-74
2021/08/12 10:28:05;;;;;;;6.35;3.88;;;34.60;53.30;;;;;;5053761;28;20095;-72
2021/08/12 10:30:32;;;;;;;7.45;4.38;;;34.40;54.10;;;;;;5054141;28;20120;-81
2021/08/12 10:33:00;;;;;;;7.82;4.72;;;34.10;54.00;;;;;;5055114;28;20024;-74
2021/08/12 10:35:28;;;;;;;7.38;3.42;;;33.80;54.60;;;;;;5053340;28;20040;-75
2021/08/12 10:37:54;;;;;;;6.63;4.22;;;33.10;54.20;;;;;;5053175;28;20037;-72
2021/08/12 10:40:25;;;;;;;6.45;4.07;;;32.80;55.40;;;;;;5053457;28;20044;-74
2021/08/12 10:42:52;;;;;;;6.53;3.65;;;32.40;56.30;;;;;;5053314;28;20052;-73
2021/08/12 10:45:20;;;;;;;5.63;3.90;;;32.10;56.30;;;;;;5053227;28;20027;-74
2021/08/12 10:47:54;;;;;;;7.03;4.57;;;31.90;56.90;;;;;;5053700;28;20027;-72
2021/08/12 10:50:23;;;;;;;20.00;14.23;;;31.70;57.20;;;;;;5052095;28;20414;-71
2021/08/12 10:53:05;;;;;;;6.13;3.95;;;31.40;58.00;;;;;;5053051;28;20378;-70
2021/08/12 10:55:33;;;;;;;6.80;4.43;;;31.00;58.50;;;;;;5052917;28;20075;-71
2021/08/12 10:58:17;;;;;;;8.80;4.25;;;30.90;58.90;;;;;;5052800;28;20462;-70
2021/08/12 11:00:50;;;;;;;9.13;4.43;;;30.70;58.90;;;;;;5052785;28;20037;-72
2021/08/12 11:03:34;;;;;;;6.13;3.70;;;30.60;59.30;;;;;;5051739;28;20461;-72
2021/08/12 11:06:37;;;;;;;9.73;4.13;;;30.50;59.20;;;;;;5053705;28;20178;-71
2021/08/12 11:09:04;;;;;;;6.70;3.88;;;30.50;59.40;;;;;;5032430;28;20040;-72
2021/08/12 11:11:32;;;;;;;7.18;4.05;;;30.60;60.00;;;;;;5051434;28;20060;-73
2021/08/12 11:13:59;;;;;;;5.38;3.90;;;30.60;59.80;;;;;;5052118;28;20459;-71
2021/08/12 11:16:27;;;;;;;6.50;3.13;;;30.60;59.40;;;;;;5052521;28;20029;-71
2021/08/12 11:18:57;;;;;;;6.40;3.58;;;30.30;59.40;;;;;;5052507;28;21050;-71
2021/08/12 11:21:31;;;;;;;4.25;3.65;;;30.00;60.20;;;;;;5051733;28;20395;-72
2021/08/12 11:24:06;;;;;;;4.05;3.65;;;29.90;61.10;;;;;;5052821;28;20076;-72
2021/08/12 11:27:02;;;;;;;4.55;3.67;;;30.00;61.30;;;;;;5052457;28;20033;-70
2021/08/12 11:29:36;;;;;;;5.85;3.80;;;30.00;60.80;;;;;;5031996;28;20033;-70
2021/08/12 11:32:05;;;;;;;5.18;3.50;;;29.90;60.60;;;;;;5047294;28;20067;-71
2021/08/12 11:34:33;;;;;;;7.85;4.32;;;29.90;60.80;;;;;;5052401;28;20451;-70
2021/08/12 11:37:17;;;;;;;12.70;4.22;;;29.90;61.60;;;;;;5052526;28;20124;-70
2021/08/12 11:39:47;;;;;;;8.82;3.80;;;29.70;62.30;;;;;;5052283;28;20029;-71
2021/08/12 11:42:41;;;;;;;7.00;3.80;;;29.90;62.70;;;;;;5052559;28;20031;-72
2021/08/12 11:45:09;;;;;;;7.85;4.30;;;29.80;61.20;;;;;;5032223;28;20096;-71
2021/08/12 11:47:35;;;;;;;;;;;29.70;60.30;;;;;;5051668;28;20044;-71
2021/08/12 11:50:03;;;;;;;5.45;3.63;;;29.50;60.10;;;;;;5052013;28;19909;-71
2021/08/12 11:52:34;;;;;;;4.32;3.10;;;29.50;60.90;;;;;;5050745;28;20090;-72
2021/08/12 11:55:11;;;;;;;8.38;3.50;;;29.60;61.00;;;;;;5052083;28;20056;-72
2021/08/12 11:57:41;;;;;;;7.97;3.17;;;29.60;61.00;;;;;;5051962;28;20093;-71
2021/08/12 12:00:33;;;;;;;5.75;3.47;;;29.60;61.10;;;;;;5051229;28;20048;-72
2021/08/12 12:03:04;;;;;;;6.38;2.95;;;29.40;60.80;;;;;;5049397;28;20057;-71
2021/08/12 12:05:37;;;;;;;6.30;3.80;;;29.50;60.80;;;;;;5051579;28;20032;-75
2021/08/12 12:08:05;;;;;;;4.85;3.13;;;29.50;59.70;;;;;;5051946;28;20351;-75
2021/08/12 12:10:34;;;;;;;5.55;3.70;;;29.50;59.50;;;;;;5051623;28;20052;-74
2021/08/12 12:13:12;;;;;;;6.85;3.50;;;29.50;59.40;;;;;;5051756;28;20085;-75
2021/08/12 12:15:42;;;;;;;4.55;3.00;;;29.50;59.10;;;;;;5051628;28;20025;-73
2021/08/12 12:18:09;;;;;;;6.82;3.22;;;29.40;58.40;;;;;;5050993;28;20040;-76
2021/08/12 12:20:37;;;;;;;4.38;3.47;;;29.40;58.90;;;;;;5049246;28;20037;-75
2021/08/12 12:23:18;;;;;;;6.05;3.28;;;29.50;58.70;;;;;;5051076;28;20045;-74
2021/08/12 12:25:49;;;;;;;4.28;2.90;;;29.50;58.80;;;;;;5051110;28;20044;-72
2021/08/12 12:28:15;;;;;;;6.22;3.60;;;29.40;58.80;;;;;;5050086;28;20731;-76
2021/08/12 12:30:41;;;;;;;20.08;13.88;;;29.30;58.40;;;;;;5051673;28;20073;-74
2021/08/12 12:33:09;;;;;;;26.63;18.85;;;29.20;58.20;;;;;;5051632;28;20109;-72
2021/08/12 12:35:37;;;;;;;7.85;3.65;;;29.20;58.30;;;;;;5051180;28;20108;-72
2021/08/12 12:38:05;;;;;;;7.70;3.50;;;29.20;58.70;;;;;;5050090;28;20467;-76
2021/08/12 12:40:34;;;;;;;8.80;3.00;;;29.00;58.20;;;;;;5051201;28;20454;-76
2021/08/12 12:43:00;;;;;;;5.68;3.10;;;28.90;58.70;;;;;;5051560;28;20094;-76
2021/08/12 12:45:27;;;;;;;9.38;3.03;;;28.70;59.00;;;;;;5051154;28;20017;-74
2021/08/12 12:48:03;;;;;;;3.45;2.78;;;28.70;59.50;;;;;;5051734;28;20021;-74
2021/08/12 12:50:43;;;;;;;4.93;2.95;;;28.80;59.80;;;;;;5051170;28;20037;-72